sensor_id;sensor_type;location;lat;lon;timestamp;P1;durP1;ratioP1;P2;durP2;ratioP2
23632;SDS011;11993;48.748;9.166;2023-08-12T00:01:42;5.15;;;2.70;;
23632;SDS011;11993;48.748;9.166;2023-08-12T00:04:07;3.80;;;2.80;;
23632;SDS011;11993;48.748;9.166;2023-08-12T00:06:33;3.50;;;2.90;;
23632;SDS011;11993;48.748;9.166;2023-08-12T00:08:59;2.97;;;2.30;;
23632;SDS011;11993;48.748;9.166;2023-08-12T00:11:24;7.93;;;2.95;;
23632;SDS011;11993;48.748;9.166;2023-08-12T00:13:50;3.75;;;2.55;;
23632;SDS011;11993;48.748;9.166;2023-08-12T00:16:15;4.60;;;2.92;;
23632;SDS011;11993;48.748;9.166;2023-08-12T00:18:41;3.53;;;2.65;;
23632;SDS011;11993;48.748;9.166;2023-08-12T00:21:07;7.60;;;2.72;;
23632;SDS011;11993;48.748;9.166;2023-08-12T00:23:36;5.47;;;2.90;;
23632;SDS011;11993;48.748;9.166;2023-08-12T00:26:03;4.65;;;2.55;;
23632;SDS011;11993;48.748;9.166;2023-08-12T00:28:29;4.25;;;2.60;;
23632;SDS011;11993;48.748;9.166;2023-08-12T00:30:54;5.20;;;2.80;;
23632;SDS011;11993;48.748;9.166;2023-08-12T00:33:20;5.63;;;2.70;;
23632;SDS011;11993;48.748;9.166;2023-08-12T00:35:45;5.03;;;2.63;;
23632;SDS011;11993;48.748;9.166;2023-08-12T00:38:11;7.28;;;2.95;;
23632;SDS011;11993;48.748;9.166;2023-08-12T00:40:36;7.78;;;3.53;;
23632;SDS011;11993;48.748;9.166;2023-08-12T00:43:02;4.03;;;2.60;;
23632;SDS011;11993;48.748;9.166;2023-08-12T00:45:28;5.00;;;3.33;;
23632;SDS011;11993;48.748;9.166;2023-08-12T00:47:54;4.35;;;3.20;;
23632;SDS011;11993;48.748;9.166;2023-08-12T00:50:20;4.35;;;3.25;;
23632;SDS011;11993;48.748;9.166;2023-08-12T00:52:46;7.05;;;3.08;;
23632;SDS011;11993;48.748;9.166;2023-08-12T00:55:11;3.85;;;2.63;;
23632;SDS011;11993;48.748;9.166;2023-08-12T00:57:37;4.10;;;2.90;;
23632;SDS011;11993;48.748;9.166;2023-08-12T01:00:03;3.92;;;3.15;;
23632;SDS011;11993;48.748;9.166;2023-08-12T01:02:29;4.72;;;3.30;;
23632;SDS011;11993;48.748;9.166;2023-08-12T01:04:55;7.53;;;3.30;;
23632;SDS011;11993;48.748;9.166;2023-08-12T01:07:20;5.97;;;3.63;;
23632;SDS011;11993;48.748;9.166;2023-08-12T01:09:46;4.93;;;3.55;;
23632;SDS011;11993;48.748;9.166;2023-08-12T01:12:20;6.40;;;3.50;;
23632;SDS011;11993;48.748;9.166;2023-08-12T01:14:53;7.90;;;3.65;;
23632;SDS011;11993;48.748;9.166;2023-08-12T01:17:26;7.93;;;3.65;;
23632;SDS011;11993;48.748;9.166;2023-08-12T01:19:54;6.35;;;3.38;;
23632;SDS011;11993;48.748;9.166;2023-08-12T01:22:21;6.53;;;3.35;;
23632;SDS011;11993;48.748;9.166;2023-08-12T01:24:50;6.53;;;3.60;;
23632;SDS011;11993;48.748;9.166;2023-08-12T01:27:16;7.38;;;3.75;;
23632;SDS011;11993;48.748;9.166;2023-08-12T01:29:45;8.90;;;3.97;;
23632;SDS011;11993;48.748;9.166;2023-08-12T01:32:19;4.20;;;3.17;;
23632;SDS011;11993;48.748;9.166;2023-08-12T01:37:53;5.95;;;3.17;;
23632;SDS011;11993;48.748;9.166;2023-08-12T01:40:20;4.88;;;3.58;;
23632;SDS011;11993;48.748;9.166;2023-08-12T01:42:46;5.53;;;3.63;;
23632;SDS011;11993;48.748;9.166;2023-08-12T01:45:12;9.18;;;3.72;;
23632;SDS011;11993;48.748;9.166;2023-08-12T01:47:38;5.43;;;4.00;;
23632;SDS011;11993;48.748;9.166;2023-08-12T01:50:03;4.07;;;3.40;;
23632;SDS011;11993;48.748;9.166;2023-08-12T01:52:29;5.18;;;3.58;;
23632;SDS011;11993;48.748;9.166;2023-08-12T01:54:55;6.38;;;3.35;;
23632;SDS011;11993;48.748;9.166;2023-08-12T01:57:21;7.13;;;3.85;;
23632;SDS011;11993;48.748;9.166;2023-08-12T01:59:46;5.65;;;3.80;;
23632;SDS011;11993;48.748;9.166;2023-08-12T02:02:12;11.05;;;4.55;;
23632;SDS011;11993;48.748;9.166;2023-08-12T02:04:39;4.28;;;3.40;;
23632;SDS011;11993;48.748;9.166;2023-08-12T02:07:05;5.40;;;3.35;;
23632;SDS011;11993;48.748;9.166;2023-08-12T02:09:31;11.30;;;4.60;;
23632;SDS011;11993;48.748;9.166;2023-08-12T02:11:56;9.30;;;3.80;;
23632;SDS011;11993;48.748;9.166;2023-08-12T02:14:22;6.28;;;3.97;;
23632;SDS011;11993;48.748;9.166;2023-08-12T02:16:48;7.85;;;3.95;;
23632;SDS011;11993;48.748;9.166;2023-08-12T02:19:14;7.35;;;4.03;;
23632;SDS011;11993;48.748;9.166;2023-08-12T02:21:39;4.32;;;3.72;;
23632;SDS011;11993;48.748;9.166;2023-08-12T02:24:06;4.78;;;3.63;;
23632;SDS011;11993;48.748;9.166;2023-08-12T02:26:31;6.03;;;3.75;;
23632;SDS011;11993;48.748;9.166;2023-08-12T02:28:57;6.72;;;3.75;;
23632;SDS011;11993;48.748;9.166;2023-08-12T02:31:22;4.05;;;3.15;;
23632;SDS011;11993;48.748;9.166;2023-08-12T02:33:48;10.70;;;4.10;;
23632;SDS011;11993;48.748;9.166;2023-08-12T02:36:14;4.65;;;3.47;;
23632;SDS011;11993;48.748;9.166;2023-08-12T02:38:40;8.52;;;3.72;;
23632;SDS011;11993;48.748;9.166;2023-08-12T02:41:06;7.05;;;3.72;;
23632;SDS011;11993;48.748;9.166;2023-08-12T02:43:31;8.05;;;3.65;;
23632;SDS011;11993;48.748;9.166;2023-08-12T02:45:57;4.50;;;3.53;;
23632;SDS011;11993;48.748;9.166;2023-08-12T02:48:23;8.43;;;3.90;;
23632;SDS011;11993;48.748;9.166;2023-08-12T02:50:48;4.68;;;3.35;;
23632;SDS011;11993;48.748;9.166;2023-08-12T02:53:14;6.55;;;4.10;;
23632;SDS011;11993;48.748;9.166;2023-08-12T02:55:40;8.90;;;3.83;;
23632;SDS011;11993;48.748;9.166;2023-08-12T02:58:06;5.57;;;3.80;;
23632;SDS011;11993;48.748;9.166;2023-08-12T03:00:32;6.25;;;3.58;;
23632;SDS011;11993;48.748;9.166;2023-08-12T03:02:57;6.07;;;4.03;;
23632;SDS011;11993;48.748;9.166;2023-08-12T03:05:23;4.75;;;3.97;;
23632;SDS011;11993;48.748;9.166;2023-08-12T03:07:49;5.20;;;3.70;;
23632;SDS011;11993;48.748;9.166;2023-08-12T03:10:16;6.00;;;3.60;;
23632;SDS011;11993;48.748;9.166;2023-08-12T03:12:42;6.00;;;3.70;;
23632;SDS011;11993;48.748;9.166;2023-08-12T03:15:07;7.25;;;4.32;;
23632;SDS011;11993;48.748;9.166;2023-08-12T03:17:33;5.70;;;4.47;;
23632;SDS011;11993;48.748;9.166;2023-08-12T03:19:59;12.30;;;4.53;;
23632;SDS011;11993;48.748;9.166;2023-08-12T03:22:27;9.88;;;3.92;;
23632;SDS011;11993;48.748;9.166;2023-08-12T03:24:53;6.82;;;4.07;;
23632;SDS011;11993;48.748;9.166;2023-08-12T03:27:19;7.85;;;4.40;;
23632;SDS011;11993;48.748;9.166;2023-08-12T03:29:44;5.57;;;4.25;;
23632;SDS011;11993;48.748;9.166;2023-08-12T03:32:10;8.35;;;4.15;;
23632;SDS011;11993;48.748;9.166;2023-08-12T03:34:35;8.32;;;4.40;;
23632;SDS011;11993;48.748;9.166;2023-08-12T03:37:01;7.47;;;4.28;;
23632;SDS011;11993;48.748;9.166;2023-08-12T03:39:27;5.10;;;4.32;;
23632;SDS011;11993;48.748;9.166;2023-08-12T03:41:52;6.05;;;4.47;;
23632;SDS011;11993;48.748;9.166;2023-08-12T03:44:18;6.40;;;4.13;;
23632;SDS011;11993;48.748;9.166;2023-08-12T03:46:44;5.07;;;3.85;;
23632;SDS011;11993;48.748;9.166;2023-08-12T03:49:09;9.07;;;4.32;;
23632;SDS011;11993;48.748;9.166;2023-08-12T03:51:35;6.65;;;3.92;;
23632;SDS011;11993;48.748;9.166;2023-08-12T03:54:00;6.82;;;4.00;;
23632;SDS011;11993;48.748;9.166;2023-08-12T03:56:26;5.82;;;4.15;;
23632;SDS011;11993;48.748;9.166;2023-08-12T03:58:51;7.60;;;4.15;;
23632;SDS011;11993;48.748;9.166;2023-08-12T04:01:17;6.22;;;4.00;;
23632;SDS011;11993;48.748;9.166;2023-08-12T04:03:43;7.22;;;4.38;;
23632;SDS011;11993;48.748;9.166;2023-08-12T04:06:08;5.50;;;4.10;;
23632;SDS011;11993;48.748;9.166;2023-08-12T04:08:34;7.35;;;4.38;;
23632;SDS011;11993;48.748;9.166;2023-08-12T04:10:59;6.43;;;4.18;;
23632;SDS011;11993;48.748;9.166;2023-08-12T04:13:25;5.10;;;3.85;;
23632;SDS011;11993;48.748;9.166;2023-08-12T04:15:51;6.68;;;4.38;;
23632;SDS011;11993;48.748;9.166;2023-08-12T04:18:18;9.20;;;4.28;;
23632;SDS011;11993;48.748;9.166;2023-08-12T04:20:48;5.00;;;4.47;;
23632;SDS011;11993;48.748;9.166;2023-08-12T04:23:14;7.25;;;4.30;;
23632;SDS011;11993;48.748;9.166;2023-08-12T04:25:39;4.63;;;3.67;;
23632;SDS011;11993;48.748;9.166;2023-08-12T04:28:05;6.80;;;4.10;;
23632;SDS011;11993;48.748;9.166;2023-08-12T04:30:30;7.30;;;4.82;;
23632;SDS011;11993;48.748;9.166;2023-08-12T04:32:56;5.15;;;4.18;;
23632;SDS011;11993;48.748;9.166;2023-08-12T04:35:21;6.55;;;4.47;;
23632;SDS011;11993;48.748;9.166;2023-08-12T04:37:47;11.50;;;5.60;;
23632;SDS011;11993;48.748;9.166;2023-08-12T04:40:12;7.40;;;4.82;;
23632;SDS011;11993;48.748;9.166;2023-08-12T04:42:38;5.18;;;4.13;;
23632;SDS011;11993;48.748;9.166;2023-08-12T04:45:04;6.25;;;3.58;;
23632;SDS011;11993;48.748;9.166;2023-08-12T04:47:29;7.15;;;3.50;;
23632;SDS011;11993;48.748;9.166;2023-08-12T04:49:55;4.95;;;3.33;;
23632;SDS011;11993;48.748;9.166;2023-08-12T04:52:21;3.65;;;3.28;;
23632;SDS011;11993;48.748;9.166;2023-08-12T04:54:46;4.85;;;3.60;;
23632;SDS011;11993;48.748;9.166;2023-08-12T04:57:12;4.72;;;3.85;;
23632;SDS011;11993;48.748;9.166;2023-08-12T04:59:37;7.80;;;4.05;;
23632;SDS011;11993;48.748;9.166;2023-08-12T05:02:03;5.82;;;3.58;;
23632;SDS011;11993;48.748;9.166;2023-08-12T05:04:29;10.27;;;6.53;;
23632;SDS011;11993;48.748;9.166;2023-08-12T05:06:54;6.60;;;5.90;;
23632;SDS011;11993;48.748;9.166;2023-08-12T05:09:20;11.13;;;4.13;;
23632;SDS011;11993;48.748;9.166;2023-08-12T05:11:45;5.65;;;3.85;;
23632;SDS011;11993;48.748;9.166;2023-08-12T05:14:11;9.88;;;4.15;;
23632;SDS011;11993;48.748;9.166;2023-08-12T05:16:36;4.22;;;3.58;;
23632;SDS011;11993;48.748;9.166;2023-08-12T05:19:02;4.78;;;3.50;;
23632;SDS011;11993;48.748;9.166;2023-08-12T05:21:28;4.97;;;4.00;;
23632;SDS011;11993;48.748;9.166;2023-08-12T05:23:53;6.93;;;4.45;;
23632;SDS011;11993;48.748;9.166;2023-08-12T05:26:19;10.32;;;6.25;;
23632;SDS011;11993;48.748;9.166;2023-08-12T05:28:45;5.03;;;3.67;;
23632;SDS011;11993;48.748;9.166;2023-08-12T05:31:11;5.43;;;3.50;;
23632;SDS011;11993;48.748;9.166;2023-08-12T05:33:37;5.85;;;3.70;;
23632;SDS011;11993;48.748;9.166;2023-08-12T05:36:02;6.82;;;3.80;;
23632;SDS011;11993;48.748;9.166;2023-08-12T05:38:28;3.30;;;2.97;;
23632;SDS011;11993;48.748;9.166;2023-08-12T05:40:54;18.73;;;15.23;;
23632;SDS011;11993;48.748;9.166;2023-08-12T05:43:19;7.45;;;5.57;;
23632;SDS011;11993;48.748;9.166;2023-08-12T05:45:45;5.93;;;4.63;;
23632;SDS011;11993;48.748;9.166;2023-08-12T05:48:10;5.25;;;4.13;;
23632;SDS011;11993;48.748;9.166;2023-08-12T05:50:36;6.88;;;3.83;;
23632;SDS011;11993;48.748;9.166;2023-08-12T05:53:02;4.30;;;3.42;;
23632;SDS011;11993;48.748;9.166;2023-08-12T05:55:27;6.20;;;3.80;;
23632;SDS011;11993;48.748;9.166;2023-08-12T05:57:53;4.57;;;3.80;;
23632;SDS011;11993;48.748;9.166;2023-08-12T06:00:18;8.43;;;4.00;;
23632;SDS011;11993;48.748;9.166;2023-08-12T06:02:44;10.48;;;4.00;;
23632;SDS011;11993;48.748;9.166;2023-08-12T06:05:09;5.15;;;3.67;;
23632;SDS011;11993;48.748;9.166;2023-08-12T06:07:35;6.72;;;4.03;;
23632;SDS011;11993;48.748;9.166;2023-08-12T06:10:01;6.03;;;4.28;;
23632;SDS011;11993;48.748;9.166;2023-08-12T06:12:26;6.72;;;3.95;;
23632;SDS011;11993;48.748;9.166;2023-08-12T06:14:52;6.80;;;4.25;;
23632;SDS011;11993;48.748;9.166;2023-08-12T06:17:17;5.43;;;4.28;;
23632;SDS011;11993;48.748;9.166;2023-08-12T06:19:43;7.78;;;5.38;;
23632;SDS011;11993;48.748;9.166;2023-08-12T06:22:09;12.15;;;7.82;;
23632;SDS011;11993;48.748;9.166;2023-08-12T06:24:34;11.45;;;7.07;;
23632;SDS011;11993;48.748;9.166;2023-08-12T06:27:00;11.52;;;6.95;;
23632;SDS011;11993;48.748;9.166;2023-08-12T06:29:25;10.65;;;6.55;;
23632;SDS011;11993;48.748;9.166;2023-08-12T06:31:52;11.77;;;6.70;;
23632;SDS011;11993;48.748;9.166;2023-08-12T06:34:17;11.10;;;6.22;;
23632;SDS011;11993;48.748;9.166;2023-08-12T06:36:43;9.77;;;5.22;;
23632;SDS011;11993;48.748;9.166;2023-08-12T06:39:08;12.13;;;4.72;;
23632;SDS011;11993;48.748;9.166;2023-08-12T06:41:34;5.95;;;4.53;;
23632;SDS011;11993;48.748;9.166;2023-08-12T06:43:59;7.53;;;5.00;;
23632;SDS011;11993;48.748;9.166;2023-08-12T06:46:26;6.53;;;4.70;;
23632;SDS011;11993;48.748;9.166;2023-08-12T06:48:51;8.00;;;4.78;;
23632;SDS011;11993;48.748;9.166;2023-08-12T06:51:17;10.98;;;5.13;;
23632;SDS011;11993;48.748;9.166;2023-08-12T06:53:42;5.20;;;4.40;;
23632;SDS011;11993;48.748;9.166;2023-08-12T06:56:08;6.32;;;4.43;;
23632;SDS011;11993;48.748;9.166;2023-08-12T06:58:34;9.63;;;4.60;;
23632;SDS011;11993;48.748;9.166;2023-08-12T07:00:59;9.82;;;4.00;;
23632;SDS011;11993;48.748;9.166;2023-08-12T07:03:25;9.20;;;4.60;;
23632;SDS011;11993;48.748;9.166;2023-08-12T07:05:52;6.30;;;4.95;;
23632;SDS011;11993;48.748;9.166;2023-08-12T07:08:18;11.45;;;4.57;;
23632;SDS011;11993;48.748;9.166;2023-08-12T07:10:43;8.10;;;4.15;;
23632;SDS011;11993;48.748;9.166;2023-08-12T07:13:09;9.73;;;4.93;;
23632;SDS011;11993;48.748;9.166;2023-08-12T07:15:34;9.30;;;4.68;;
23632;SDS011;11993;48.748;9.166;2023-08-12T07:18:00;7.40;;;4.68;;
23632;SDS011;11993;48.748;9.166;2023-08-12T07:20:26;5.88;;;4.30;;
23632;SDS011;11993;48.748;9.166;2023-08-12T07:22:52;9.15;;;4.50;;
23632;SDS011;11993;48.748;9.166;2023-08-12T07:25:18;8.50;;;4.13;;
23632;SDS011;11993;48.748;9.166;2023-08-12T07:27:43;7.30;;;3.90;;
23632;SDS011;11993;48.748;9.166;2023-08-12T07:30:09;6.65;;;4.00;;
23632;SDS011;11993;48.748;9.166;2023-08-12T07:32:38;8.45;;;3.55;;
23632;SDS011;11993;48.748;9.166;2023-08-12T07:35:04;10.73;;;4.10;;
23632;SDS011;11993;48.748;9.166;2023-08-12T07:37:30;6.70;;;4.32;;
23632;SDS011;11993;48.748;9.166;2023-08-12T07:39:57;5.47;;;3.75;;
23632;SDS011;11993;48.748;9.166;2023-08-12T07:42:22;5.82;;;3.90;;
23632;SDS011;11993;48.748;9.166;2023-08-12T07:44:51;9.95;;;3.60;;
23632;SDS011;11993;48.748;9.166;2023-08-12T07:47:16;5.35;;;3.63;;
23632;SDS011;11993;48.748;9.166;2023-08-12T07:49:42;6.10;;;3.60;;
23632;SDS011;11993;48.748;9.166;2023-08-12T07:52:08;5.82;;;3.25;;
23632;SDS011;11993;48.748;9.166;2023-08-12T07:54:33;12.23;;;3.53;;
23632;SDS011;11993;48.748;9.166;2023-08-12T07:56:59;6.95;;;3.60;;
23632;SDS011;11993;48.748;9.166;2023-08-12T07:59:24;7.78;;;3.30;;
23632;SDS011;11993;48.748;9.166;2023-08-12T08:01:50;8.35;;;3.30;;
23632;SDS011;11993;48.748;9.166;2023-08-12T08:04:16;5.38;;;3.10;;
23632;SDS011;11993;48.748;9.166;2023-08-12T08:06:42;4.07;;;3.30;;
23632;SDS011;11993;48.748;9.166;2023-08-12T08:09:08;6.00;;;3.20;;
23632;SDS011;11993;48.748;9.166;2023-08-12T08:11:34;3.33;;;2.83;;
23632;SDS011;11993;48.748;9.166;2023-08-12T08:14:00;10.25;;;3.97;;
23632;SDS011;11993;48.748;9.166;2023-08-12T08:16:25;7.32;;;3.92;;
23632;SDS011;11993;48.748;9.166;2023-08-12T08:18:51;5.00;;;3.10;;
23632;SDS011;11993;48.748;9.166;2023-08-12T08:21:17;6.40;;;3.42;;
23632;SDS011;11993;48.748;9.166;2023-08-12T08:23:42;3.00;;;2.70;;
23632;SDS011;11993;48.748;9.166;2023-08-12T08:26:08;5.10;;;2.95;;
23632;SDS011;11993;48.748;9.166;2023-08-12T08:28:34;7.68;;;2.90;;
23632;SDS011;11993;48.748;9.166;2023-08-12T08:31:00;6.85;;;3.13;;
23632;SDS011;11993;48.748;9.166;2023-08-12T08:33:26;4.13;;;2.83;;
23632;SDS011;11993;48.748;9.166;2023-08-12T08:35:51;3.08;;;2.78;;
23632;SDS011;11993;48.748;9.166;2023-08-12T08:38:18;6.15;;;2.60;;
23632;SDS011;11993;48.748;9.166;2023-08-12T08:40:44;5.82;;;3.10;;
23632;SDS011;11993;48.748;9.166;2023-08-12T08:43:10;5.25;;;2.53;;
23632;SDS011;11993;48.748;9.166;2023-08-12T08:45:38;4.03;;;2.60;;
23632;SDS011;11993;48.748;9.166;2023-08-12T08:48:04;6.95;;;2.78;;
23632;SDS011;11993;48.748;9.166;2023-08-12T08:50:31;5.80;;;2.95;;
23632;SDS011;11993;48.748;9.166;2023-08-12T08:52:57;5.65;;;3.08;;
23632;SDS011;11993;48.748;9.166;2023-08-12T08:55:23;7.63;;;2.90;;
23632;SDS011;11993;48.748;9.166;2023-08-12T08:57:49;3.92;;;3.20;;
23632;SDS011;11993;48.748;9.166;2023-08-12T09:00:16;4.47;;;3.22;;
23632;SDS011;11993;48.748;9.166;2023-08-12T09:02:43;3.45;;;3.03;;
23632;SDS011;11993;48.748;9.166;2023-08-12T09:05:11;4.65;;;3.10;;
23632;SDS011;11993;48.748;9.166;2023-08-12T09:07:38;6.05;;;2.75;;
23632;SDS011;11993;48.748;9.166;2023-08-12T09:10:05;6.90;;;3.15;;
23632;SDS011;11993;48.748;9.166;2023-08-12T09:12:32;5.88;;;2.50;;
23632;SDS011;11993;48.748;9.166;2023-08-12T09:14:58;5.32;;;2.55;;
23632;SDS011;11993;48.748;9.166;2023-08-12T09:17:23;5.10;;;2.83;;
23632;SDS011;11993;48.748;9.166;2023-08-12T09:19:49;3.85;;;2.60;;
23632;SDS011;11993;48.748;9.166;2023-08-12T09:22:15;5.70;;;2.60;;
23632;SDS011;11993;48.748;9.166;2023-08-12T09:24:42;3.35;;;2.50;;
23632;SDS011;11993;48.748;9.166;2023-08-12T09:27:08;4.30;;;2.10;;
23632;SDS011;11993;48.748;9.166;2023-08-12T09:29:33;3.03;;;2.40;;
23632;SDS011;11993;48.748;9.166;2023-08-12T09:32:10;4.55;;;2.50;;
23632;SDS011;11993;48.748;9.166;2023-08-12T09:34:37;3.53;;;2.30;;
23632;SDS011;11993;48.748;9.166;2023-08-12T09:37:11;3.38;;;2.15;;
23632;SDS011;11993;48.748;9.166;2023-08-12T09:39:38;3.15;;;2.00;;
23632;SDS011;11993;48.748;9.166;2023-08-12T09:42:04;5.95;;;2.63;;
23632;SDS011;11993;48.748;9.166;2023-08-12T09:44:30;5.28;;;2.40;;
23632;SDS011;11993;48.748;9.166;2023-08-12T09:46:59;5.97;;;2.58;;
23632;SDS011;11993;48.748;9.166;2023-08-12T09:49:26;5.03;;;2.80;;
23632;SDS011;11993;48.748;9.166;2023-08-12T09:51:52;4.22;;;2.50;;
23632;SDS011;11993;48.748;9.166;2023-08-12T09:54:18;7.85;;;2.60;;
23632;SDS011;11993;48.748;9.166;2023-08-12T09:56:45;3.72;;;2.30;;
23632;SDS011;11993;48.748;9.166;2023-08-12T09:59:19;2.58;;;2.17;;
23632;SDS011;11993;48.748;9.166;2023-08-12T10:01:47;2.78;;;2.00;;
23632;SDS011;11993;48.748;9.166;2023-08-12T10:04:15;3.85;;;2.75;;
23632;SDS011;11993;48.748;9.166;2023-08-12T10:06:43;3.78;;;2.20;;
23632;SDS011;11993;48.748;9.166;2023-08-12T10:09:10;4.50;;;2.28;;
23632;SDS011;11993;48.748;9.166;2023-08-12T10:11:36;4.68;;;2.53;;
23632;SDS011;11993;48.748;9.166;2023-08-12T10:14:03;7.28;;;2.30;;
23632;SDS011;11993;48.748;9.166;2023-08-12T10:16:29;4.57;;;2.45;;
23632;SDS011;11993;48.748;9.166;2023-08-12T10:18:55;4.20;;;2.45;;
23632;SDS011;11993;48.748;9.166;2023-08-12T10:21:22;3.70;;;2.65;;
23632;SDS011;11993;48.748;9.166;2023-08-12T10:23:48;5.10;;;2.50;;
23632;SDS011;11993;48.748;9.166;2023-08-12T10:26:15;2.83;;;2.30;;
23632;SDS011;11993;48.748;9.166;2023-08-12T10:28:42;3.05;;;2.42;;
23632;SDS011;11993;48.748;9.166;2023-08-12T10:31:08;6.80;;;2.83;;
23632;SDS011;11993;48.748;9.166;2023-08-12T10:33:36;3.13;;;2.47;;
23632;SDS011;11993;48.748;9.166;2023-08-12T10:36:03;4.03;;;2.25;;
23632;SDS011;11993;48.748;9.166;2023-08-12T10:38:30;4.95;;;2.50;;
23632;SDS011;11993;48.748;9.166;2023-08-12T10:41:14;5.10;;;2.58;;
23632;SDS011;11993;48.748;9.166;2023-08-12T10:46:26;3.90;;;2.60;;
23632;SDS011;11993;48.748;9.166;2023-08-12T10:51:48;5.43;;;2.75;;
23632;SDS011;11993;48.748;9.166;2023-08-12T11:02:18;6.15;;;2.65;;
23632;SDS011;11993;48.748;9.166;2023-08-12T11:04:51;5.43;;;2.95;;
23632;SDS011;11993;48.748;9.166;2023-08-12T11:07:39;6.63;;;2.60;;
23632;SDS011;11993;48.748;9.166;2023-08-12T11:10:16;4.95;;;2.53;;
23632;SDS011;11993;48.748;9.166;2023-08-12T11:15:34;3.53;;;2.50;;
23632;SDS011;11993;48.748;9.166;2023-08-12T11:18:02;4.03;;;2.58;;
23632;SDS011;11993;48.748;9.166;2023-08-12T11:20:29;4.55;;;2.60;;
23632;SDS011;11993;48.748;9.166;2023-08-12T11:22:55;3.78;;;2.50;;
23632;SDS011;11993;48.748;9.166;2023-08-12T11:25:23;4.30;;;2.50;;
23632;SDS011;11993;48.748;9.166;2023-08-12T11:27:49;9.38;;;3.13;;
23632;SDS011;11993;48.748;9.166;2023-08-12T11:30:15;6.53;;;3.25;;
23632;SDS011;11993;48.748;9.166;2023-08-12T11:32:42;3.90;;;2.67;;
23632;SDS011;11993;48.748;9.166;2023-08-12T11:35:09;7.10;;;2.30;;
23632;SDS011;11993;48.748;9.166;2023-08-12T11:37:36;4.43;;;2.72;;
23632;SDS011;11993;48.748;9.166;2023-08-12T11:40:06;3.80;;;2.47;;
23632;SDS011;11993;48.748;9.166;2023-08-12T11:42:36;4.93;;;2.40;;
23632;SDS011;11993;48.748;9.166;2023-08-12T11:45:03;5.05;;;2.40;;
23632;SDS011;11993;48.748;9.166;2023-08-12T11:47:30;10.18;;;2.90;;
23632;SDS011;11993;48.748;9.166;2023-08-12T11:49:55;5.63;;;2.58;;
23632;SDS011;11993;48.748;9.166;2023-08-12T11:52:21;5.10;;;2.50;;
23632;SDS011;11993;48.748;9.166;2023-08-12T11:54:49;4.85;;;2.58;;
23632;SDS011;11993;48.748;9.166;2023-08-12T11:57:15;16.75;;;3.08;;
23632;SDS011;11993;48.748;9.166;2023-08-12T11:59:41;8.07;;;2.65;;
23632;SDS011;11993;48.748;9.166;2023-08-12T12:02:06;3.70;;;2.63;;
23632;SDS011;11993;48.748;9.166;2023-08-12T12:04:32;7.38;;;2.78;;
23632;SDS011;11993;48.748;9.166;2023-08-12T12:06:58;4.50;;;2.53;;
23632;SDS011;11993;48.748;9.166;2023-08-12T12:09:25;14.25;;;2.70;;
23632;SDS011;11993;48.748;9.166;2023-08-12T12:11:54;6.93;;;2.40;;
23632;SDS011;11993;48.748;9.166;2023-08-12T12:14:20;4.55;;;2.17;;
23632;SDS011;11993;48.748;9.166;2023-08-12T12:16:47;4.45;;;3.10;;
23632;SDS011;11993;48.748;9.166;2023-08-12T12:19:20;8.05;;;2.95;;
23632;SDS011;11993;48.748;9.166;2023-08-12T12:21:47;8.52;;;3.47;;
23632;SDS011;11993;48.748;9.166;2023-08-12T12:24:14;13.13;;;3.45;;
23632;SDS011;11993;48.748;9.166;2023-08-12T12:26:41;9.20;;;3.60;;
23632;SDS011;11993;48.748;9.166;2023-08-12T12:29:06;9.50;;;7.00;;
23632;SDS011;11993;48.748;9.166;2023-08-12T12:31:33;7.70;;;4.60;;
23632;SDS011;11993;48.748;9.166;2023-08-12T12:34:00;8.80;;;4.63;;
23632;SDS011;11993;48.748;9.166;2023-08-12T12:36:28;7.80;;;3.78;;
23632;SDS011;11993;48.748;9.166;2023-08-12T12:38:54;4.88;;;3.55;;
23632;SDS011;11993;48.748;9.166;2023-08-12T12:41:20;6.28;;;3.83;;
23632;SDS011;11993;48.748;9.166;2023-08-12T12:43:45;4.95;;;3.60;;
23632;SDS011;11993;48.748;9.166;2023-08-12T12:46:11;10.25;;;4.63;;
23632;SDS011;11993;48.748;9.166;2023-08-12T12:48:36;5.85;;;3.83;;
23632;SDS011;11993;48.748;9.166;2023-08-12T12:51:02;6.60;;;4.20;;
23632;SDS011;11993;48.748;9.166;2023-08-12T12:53:28;5.63;;;3.92;;
23632;SDS011;11993;48.748;9.166;2023-08-12T12:55:53;6.70;;;4.57;;
23632;SDS011;11993;48.748;9.166;2023-08-12T12:58:19;7.60;;;3.97;;
23632;SDS011;11993;48.748;9.166;2023-08-12T13:00:47;10.80;;;4.88;;
23632;SDS011;11993;48.748;9.166;2023-08-12T13:03:12;11.05;;;4.60;;
23632;SDS011;11993;48.748;9.166;2023-08-12T13:05:38;5.82;;;4.05;;
23632;SDS011;11993;48.748;9.166;2023-08-12T13:08:04;7.97;;;4.55;;
23632;SDS011;11993;48.748;9.166;2023-08-12T13:10:29;6.68;;;4.20;;
23632;SDS011;11993;48.748;9.166;2023-08-12T13:12:55;7.75;;;4.40;;
23632;SDS011;11993;48.748;9.166;2023-08-12T13:15:22;5.60;;;3.85;;
23632;SDS011;11993;48.748;9.166;2023-08-12T13:17:49;11.00;;;4.50;;
23632;SDS011;11993;48.748;9.166;2023-08-12T13:20:14;8.43;;;4.03;;
23632;SDS011;11993;48.748;9.166;2023-08-12T13:22:40;7.95;;;4.43;;
23632;SDS011;11993;48.748;9.166;2023-08-12T13:25:05;7.78;;;4.60;;
23632;SDS011;11993;48.748;9.166;2023-08-12T13:27:31;8.25;;;4.35;;
23632;SDS011;11993;48.748;9.166;2023-08-12T13:29:57;10.65;;;4.63;;
23632;SDS011;11993;48.748;9.166;2023-08-12T13:32:23;8.00;;;4.63;;
23632;SDS011;11993;48.748;9.166;2023-08-12T13:34:48;6.45;;;4.10;;
23632;SDS011;11993;48.748;9.166;2023-08-12T13:37:14;9.70;;;4.38;;
23632;SDS011;11993;48.748;9.166;2023-08-12T13:39:39;9.82;;;3.83;;
23632;SDS011;11993;48.748;9.166;2023-08-12T13:42:05;5.18;;;4.07;;
23632;SDS011;11993;48.748;9.166;2023-08-12T13:44:30;8.18;;;4.15;;
23632;SDS011;11993;48.748;9.166;2023-08-12T13:46:56;8.43;;;4.90;;
23632;SDS011;11993;48.748;9.166;2023-08-12T13:49:22;7.43;;;5.15;;
23632;SDS011;11993;48.748;9.166;2023-08-12T13:51:47;7.07;;;3.50;;
23632;SDS011;11993;48.748;9.166;2023-08-12T13:54:13;8.60;;;3.78;;
23632;SDS011;11993;48.748;9.166;2023-08-12T13:56:38;10.27;;;4.22;;
23632;SDS011;11993;48.748;9.166;2023-08-12T13:59:04;8.68;;;3.53;;
23632;SDS011;11993;48.748;9.166;2023-08-12T14:01:29;5.22;;;2.88;;
23632;SDS011;11993;48.748;9.166;2023-08-12T14:03:55;5.57;;;3.00;;
23632;SDS011;11993;48.748;9.166;2023-08-12T14:06:20;4.85;;;2.75;;
23632;SDS011;11993;48.748;9.166;2023-08-12T14:08:46;4.72;;;2.75;;
23632;SDS011;11993;48.748;9.166;2023-08-12T14:11:11;4.85;;;2.75;;
23632;SDS011;11993;48.748;9.166;2023-08-12T14:13:37;4.57;;;2.97;;
23632;SDS011;11993;48.748;9.166;2023-08-12T14:16:02;5.38;;;2.80;;
23632;SDS011;11993;48.748;9.166;2023-08-12T14:18:28;4.80;;;3.00;;
23632;SDS011;11993;48.748;9.166;2023-08-12T14:20:54;6.60;;;3.03;;
23632;SDS011;11993;48.748;9.166;2023-08-12T14:23:19;6.45;;;2.60;;
23632;SDS011;11993;48.748;9.166;2023-08-12T14:25:45;5.32;;;2.38;;
23632;SDS011;11993;48.748;9.166;2023-08-12T14:28:10;4.57;;;2.30;;
23632;SDS011;11993;48.748;9.166;2023-08-12T14:30:36;5.85;;;2.40;;
23632;SDS011;11993;48.748;9.166;2023-08-12T14:33:02;5.45;;;2.45;;
23632;SDS011;11993;48.748;9.166;2023-08-12T14:35:28;5.32;;;2.45;;
23632;SDS011;11993;48.748;9.166;2023-08-12T14:37:53;3.63;;;2.20;;
23632;SDS011;11993;48.748;9.166;2023-08-12T14:40:19;5.95;;;2.30;;
23632;SDS011;11993;48.748;9.166;2023-08-12T14:42:44;4.22;;;2.15;;
23632;SDS011;11993;48.748;9.166;2023-08-12T14:45:10;2.33;;;1.95;;
23632;SDS011;11993;48.748;9.166;2023-08-12T14:47:35;3.55;;;2.03;;
23632;SDS011;11993;48.748;9.166;2023-08-12T14:50:01;3.20;;;1.70;;
23632;SDS011;11993;48.748;9.166;2023-08-12T14:52:27;4.57;;;2.47;;
23632;SDS011;11993;48.748;9.166;2023-08-12T14:54:52;4.40;;;2.22;;
23632;SDS011;11993;48.748;9.166;2023-08-12T14:57:18;4.82;;;2.03;;
23632;SDS011;11993;48.748;9.166;2023-08-12T14:59:43;3.65;;;2.30;;